createdAt,value
2016-06-07T00:00:08.897Z,22.7
2016-06-07T00:01:08.869Z,22.61
2016-06-07T00:02:08.888Z,22.59
2016-06-07T00:03:08.922Z,22.62
2016-06-07T00:04:08.876Z,22.59
2016-06-07T00:05:08.896Z,22.57
2016-06-07T00:06:09.304Z,22.59
2016-06-07T00:07:08.838Z,22.61
2016-06-07T00:08:08.684Z,22.48
2016-06-07T00:09:08.859Z,22.54
2016-06-07T00:10:08.799Z,22.55
2016-06-07T00:11:08.802Z,22.54
2016-06-07T00:12:08.790Z,22.54
2016-06-07T00:13:08.776Z,22.57
2016-06-07T00:14:08.778Z,22.5
2016-06-07T00:15:08.765Z,22.54
2016-06-07T00:16:08.753Z,22.54
2016-06-07T00:17:08.803Z,22.58
2016-06-07T00:18:08.742Z,22.52
2016-06-07T00:19:08.729Z,22.45
2016-06-07T00:20:08.717Z,22.52
2016-06-07T00:21:09.517Z,22.51
2016-06-07T00:22:08.707Z,22.47
2016-06-07T00:23:08.678Z,22.48
2016-06-07T00:24:08.680Z,22.42
2016-06-07T00:25:08.683Z,22.39
2016-06-07T00:26:08.655Z,22.45
2016-06-07T00:27:08.641Z,22.37
2016-06-07T00:28:08.645Z,22.4
2016-06-07T00:29:08.476Z,22.36
2016-06-07T00:30:08.619Z,22.36
2016-06-07T00:31:08.590Z,22.42
2016-06-07T00:32:08.608Z,22.42
2016-06-07T00:33:08.596Z,22.33
2016-06-07T00:34:08.599Z,22.42
2016-06-07T00:35:08.585Z,22.29
2016-06-07T00:36:08.947Z,22.2
2016-06-07T00:37:08.559Z,22.15
2016-06-07T00:38:08.547Z,22.21
2016-06-07T00:39:08.533Z,22.11
2016-06-07T00:40:08.520Z,22.2
2016-06-07T00:41:08.523Z,22.27
2016-06-07T00:42:08.541Z,22.2
2016-06-07T00:43:08.498Z,22.27
2016-06-07T00:44:08.500Z,22.17
2016-06-07T00:45:08.487Z,22.32
2016-06-07T00:46:08.521Z,22.21
2016-06-07T00:47:08.462Z,22.2
2016-06-07T00:48:08.479Z,22.22
2016-06-07T00:49:08.451Z,22.27
2016-06-07T00:50:08.516Z,22.27
2016-06-07T00:51:08.550Z,22.18
2016-06-07T00:52:08.459Z,22.2
2016-06-07T00:53:08.415Z,22.17
2016-06-07T00:54:08.464Z,22.2
2016-06-07T00:55:08.389Z,22.15
2016-06-07T00:56:08.439Z,22.18
2016-06-07T00:57:08.364Z,22.12
2016-06-07T00:58:08.381Z,22.11
2016-06-07T00:59:08.353Z,22.08
2016-06-07T01:00:08.356Z,22.15
2016-06-07T01:01:08.327Z,22.2
2016-06-07T01:02:08.314Z,22.14
2016-06-07T01:03:08.317Z,22.12
2016-06-07T01:04:08.335Z,22.15
2016-06-07T01:05:08.307Z,22.15
2016-06-07T01:06:08.699Z,22.14
2016-06-07T01:07:08.280Z,22.03
2016-06-07T01:08:08.268Z,22.12
2016-06-07T01:09:08.255Z,22.1
2016-06-07T01:10:08.258Z,22.17
2016-06-07T01:11:08.244Z,22.08
2016-06-07T01:12:08.231Z,22.12
2016-06-07T01:13:08.218Z,22.15
2016-06-07T01:14:08.221Z,22.11
2016-06-07T01:15:08.209Z,22.1
2016-06-07T01:16:08.211Z,22.11
2016-06-07T01:17:08.229Z,22.06
2016-06-07T01:18:08.170Z,22.02
2016-06-07T01:19:08.187Z,22.02
2016-06-07T01:20:08.159Z,22.02
2016-06-07T01:21:08.709Z,21.92
2016-06-07T01:22:07.993Z,21.97
2016-06-07T01:23:08.136Z,22.03
2016-06-07T01:24:08.123Z,21.99
2016-06-07T01:25:08.110Z,22.06
2016-06-07T01:26:08.098Z,21.93
2016-06-07T01:27:08.069Z,21.97
2016-06-07T01:28:08.087Z,21.95
2016-06-07T01:29:08.167Z,21.95
2016-06-07T01:30:08.061Z,21.83
2016-06-07T01:31:08.095Z,21.95
2016-06-07T01:32:08.036Z,21.97
2016-06-07T01:33:08.038Z,21.9
2016-06-07T01:34:08.025Z,21.96
2016-06-07T01:35:08.027Z,21.88
2016-06-07T01:36:07.859Z,21.88
2016-06-07T01:37:08.033Z,21.81
2016-06-07T01:38:07.974Z,21.79
2016-06-07T01:39:07.976Z,21.79
2016-06-07T01:40:07.963Z,21.84
2016-06-07T01:41:08.013Z,21.92
2016-06-07T01:42:07.953Z,21.84
2016-06-07T01:43:07.924Z,21.84
2016-06-07T01:44:07.942Z,21.92
2016-06-07T01:45:07.960Z,21.9
2016-06-07T01:46:07.917Z,21.81
2016-06-07T01:47:07.903Z,21.88
2016-06-07T01:48:07.879Z,21.81
2016-06-07T01:49:07.897Z,21.88
2016-06-07T01:50:07.914Z,21.88
2016-06-07T01:51:07.807Z,21.84
2016-06-07T01:52:07.917Z,21.71
2016-06-07T01:53:07.762Z,21.77
2016-06-07T01:54:07.895Z,21.76
2016-06-07T01:55:07.903Z,21.79
2016-06-07T01:56:07.912Z,21.74
2016-06-07T01:57:07.919Z,21.84
2016-06-07T01:58:07.895Z,21.81
2016-06-07T01:59:07.884Z,21.77
2016-06-07T02:00:07.888Z,21.74
2016-06-07T02:01:07.861Z,21.76
2016-06-07T02:02:07.866Z,21.71
2016-06-07T02:03:07.839Z,21.71
2016-06-07T02:04:07.843Z,21.68
2016-06-07T02:05:07.847Z,21.62
2016-06-07T02:06:08.006Z,21.64
2016-06-07T02:07:08.478Z,21.62
2016-06-07T02:08:07.810Z,21.71
2016-06-07T02:09:07.813Z,21.62
2016-06-07T02:10:07.801Z,21.66
2016-06-07T02:11:07.771Z,21.66
2016-06-07T02:12:07.775Z,21.64
2016-06-07T02:13:07.763Z,21.58
2016-06-07T02:14:07.750Z,21.65
2016-06-07T02:15:07.752Z,21.68
2016-06-07T02:16:07.740Z,21.65
2016-06-07T02:17:07.742Z,21.7
2016-06-07T02:18:07.777Z,21.71
2016-06-07T02:19:07.716Z,21.66
2016-06-07T02:20:07.688Z,21.7
2016-06-07T02:21:07.549Z,21.66
2016-06-07T02:22:08.865Z,21.66
2016-06-07T02:23:07.680Z,21.7
2016-06-07T02:24:07.668Z,21.64
2016-06-07T02:25:07.654Z,21.58
2016-06-07T02:26:07.642Z,21.44
2016-06-07T02:27:07.473Z,21.46
2016-06-07T02:28:07.631Z,21.46
2016-06-07T02:29:07.603Z,21.44
2016-06-07T02:30:07.605Z,21.49
2016-06-07T02:31:07.592Z,21.41
2016-06-07T02:32:07.564Z,21.39
2016-06-07T02:33:07.582Z,21.44
2016-06-07T02:34:07.570Z,21.4
2016-06-07T02:35:07.556Z,21.41
2016-06-07T02:36:07.575Z,21.37
2016-06-07T02:37:08.202Z,21.33
2016-06-07T02:38:07.517Z,21.24
2016-06-07T02:39:07.505Z,21.39
2016-06-07T02:40:07.508Z,21.41
2016-06-07T02:41:07.478Z,21.34
2016-06-07T02:42:07.497Z,21.33
2016-06-07T02:43:07.469Z,21.39
2016-06-07T02:44:07.518Z,21.33
2016-06-07T02:45:07.458Z,21.29
2016-06-07T02:46:07.446Z,21.26
2016-06-07T02:47:07.416Z,21.26
2016-06-07T02:48:07.419Z,21.22
2016-06-07T02:49:07.421Z,21.25
2016-06-07T02:50:07.394Z,21.33
2016-06-07T02:51:07.850Z,21.33
2016-06-07T02:52:07.382Z,21.26
2016-06-07T02:53:07.386Z,21.33
2016-06-07T02:54:07.373Z,21.26
2016-06-07T02:55:07.360Z,21.39
2016-06-07T02:56:07.363Z,21.29
2016-06-07T02:57:07.334Z,21.26
2016-06-07T02:58:07.321Z,21.29
2016-06-07T02:59:07.309Z,21.29
2016-06-07T03:00:07.296Z,21.28
2016-06-07T03:01:07.282Z,21.22
2016-06-07T03:02:07.285Z,21.02
2016-06-07T03:03:07.287Z,21.1
2016-06-07T03:04:07.290Z,21.06
2016-06-07T03:05:07.247Z,21.19
2016-06-07T03:06:07.077Z,21.13
2016-06-07T03:07:07.236Z,21.04
2016-06-07T03:08:07.223Z,21.15
2016-06-07T03:09:07.211Z,21.15
2016-06-07T03:10:07.197Z,21.13
2016-06-07T03:11:07.200Z,21.17
2016-06-07T03:12:07.186Z,21.18
2016-06-07T03:13:07.189Z,21.1
2016-06-07T03:14:07.146Z,21.13
2016-06-07T03:15:07.163Z,21.09
2016-06-07T03:16:07.135Z,21.13
2016-06-07T03:17:07.122Z,21.18
2016-06-07T03:18:07.110Z,21.06
2016-06-07T03:19:07.128Z,21.06
2016-06-07T03:20:07.115Z,21.21
2016-06-07T03:21:06.930Z,21.15
2016-06-07T03:22:07.402Z,21.19
2016-06-07T03:23:07.091Z,21.17
2016-06-07T03:24:07.048Z,21.18
2016-06-07T03:25:07.097Z,21.07
2016-06-07T03:26:07.054Z,21.15
2016-06-07T03:27:07.087Z,21.13
2016-06-07T03:28:07.012Z,21.25
2016-06-07T03:29:06.998Z,21.17
2016-06-07T03:30:07.001Z,21.06
2016-06-07T03:31:07.004Z,21.19
2016-06-07T03:32:06.976Z,21.09
2016-06-07T03:33:06.962Z,21.13
2016-06-07T03:34:06.965Z,21.17
2016-06-07T03:35:06.936Z,21.09
2016-06-07T03:36:06.798Z,21.11
2016-06-07T03:37:07.395Z,21.21
2016-06-07T03:38:06.913Z,21.15
2016-06-07T03:39:06.963Z,21.19
2016-06-07T03:40:06.934Z,21.09
2016-06-07T03:41:06.922Z,21.21
2016-06-07T03:42:06.892Z,21.25
2016-06-07T03:43:06.864Z,21.25
2016-06-07T03:44:06.867Z,21.29
2016-06-07T03:45:06.838Z,21.24
2016-06-07T03:46:06.825Z,21.31
2016-06-07T03:47:06.860Z,21.25
2016-06-07T03:48:06.815Z,21.21
2016-06-07T03:49:06.802Z,21.24
2016-06-07T03:50:06.805Z,21.29
2016-06-07T03:51:06.886Z,21.22
2016-06-07T03:52:07.263Z,21.18
2016-06-07T03:53:06.766Z,21.36
2016-06-07T03:54:06.769Z,21.28
2016-06-07T03:55:06.740Z,21.25
2016-06-07T03:56:06.743Z,21.29
2016-06-07T03:57:06.745Z,21.25
2016-06-07T03:58:06.717Z,21.39
2016-06-07T03:59:06.704Z,21.29
2016-06-07T04:00:06.770Z,21.25
2016-06-07T04:01:06.679Z,21.29
2016-06-07T04:02:06.681Z,21.22
2016-06-07T04:03:06.668Z,21.25
2016-06-07T04:04:06.670Z,21.29
2016-06-07T04:05:06.658Z,21.19
2016-06-07T04:06:06.770Z,21.29
2016-06-07T04:07:06.632Z,21.26
2016-06-07T04:08:06.650Z,21.24
2016-06-07T04:09:06.606Z,21.22
2016-06-07T04:10:06.593Z,21.25
2016-06-07T04:11:06.580Z,21.34
2016-06-07T04:12:06.630Z,21.37
2016-06-07T04:13:06.555Z,21.33
2016-06-07T04:14:06.401Z,21.34
2016-06-07T04:15:06.544Z,21.34
2016-06-07T04:16:06.546Z,21.37
2016-06-07T04:17:06.534Z,21.34
2016-06-07T04:18:06.506Z,21.41
2016-06-07T04:19:06.352Z,21.37
2016-06-07T04:20:06.494Z,21.39
2016-06-07T04:21:06.482Z,21.41
2016-06-07T04:22:07.079Z,21.43
2016-06-07T04:23:06.472Z,21.46
2016-06-07T04:24:06.475Z,21.44
2016-06-07T04:25:06.446Z,21.49
2016-06-07T04:26:06.432Z,21.46
2016-06-07T04:27:06.436Z,21.43
2016-06-07T04:28:06.423Z,21.43
2016-06-07T04:29:06.410Z,21.49
2016-06-07T04:30:06.412Z,21.47
2016-06-07T04:31:06.385Z,21.5
2016-06-07T04:32:06.387Z,21.47
2016-06-07T04:33:06.358Z,21.61
2016-06-07T04:34:06.362Z,21.59
2016-06-07T04:35:06.175Z,21.59
2016-06-07T04:36:06.335Z,21.64
2016-06-07T04:37:06.837Z,21.64
2016-06-07T04:38:06.934Z,21.68
2016-06-07T04:39:06.342Z,21.64
2016-06-07T04:40:06.284Z,21.64
2016-06-07T04:41:06.286Z,21.61
2016-06-07T04:42:06.273Z,21.58
2016-06-07T04:43:06.260Z,21.65
2016-06-07T04:44:06.264Z,21.65
2016-06-07T04:45:06.233Z,21.59
2016-06-07T04:46:06.252Z,21.61
2016-06-07T04:47:06.224Z,21.62
2016-06-07T04:48:06.227Z,21.65
2016-06-07T04:49:06.214Z,21.7
2016-06-07T04:50:06.185Z,21.68
2016-06-07T04:51:06.016Z,21.71
2016-06-07T04:52:06.002Z,21.76
2016-06-07T04:53:06.333Z,21.74
2016-06-07T04:54:06.165Z,21.8
2016-06-07T04:55:06.152Z,21.79
2016-06-07T04:56:06.138Z,21.74
2016-06-07T04:57:06.157Z,21.81
2016-06-07T04:58:06.113Z,21.73
2016-06-07T04:59:06.116Z,21.83
2016-06-07T05:00:06.134Z,21.83
2016-06-07T05:01:06.105Z,21.9
2016-06-07T05:02:06.092Z,21.83
2016-06-07T05:03:06.126Z,21.8
2016-06-07T05:04:06.067Z,21.76
2016-06-07T05:05:06.054Z,21.8
2016-06-07T05:06:06.041Z,21.84
2016-06-07T05:07:06.028Z,21.88
2016-06-07T05:08:06.406Z,21.86
2016-06-07T05:09:05.861Z,21.83
2016-06-07T05:10:06.020Z,21.77
2016-06-07T05:11:06.007Z,21.88
2016-06-07T05:12:05.978Z,21.97
2016-06-07T05:13:05.966Z,21.96
2016-06-07T05:14:05.969Z,21.9
2016-06-07T05:15:05.956Z,21.97
2016-06-07T05:16:05.942Z,21.92
2016-06-07T05:17:06.304Z,21.99
2016-06-07T05:18:05.917Z,21.96
2016-06-07T05:19:05.966Z,21.96
2016-06-07T05:20:05.906Z,21.93
2016-06-07T05:21:05.908Z,22.11
2016-06-07T05:22:05.975Z,22.02
2016-06-07T05:23:05.868Z,22.02
2016-06-07T05:24:05.855Z,22.02
2016-06-07T05:25:05.857Z,22.02
2016-06-07T05:26:05.844Z,21.95
2016-06-07T05:27:05.832Z,21.97
2016-06-07T05:28:05.850Z,21.96
2016-06-07T05:29:05.821Z,21.97
2016-06-07T05:30:05.807Z,21.97
2016-06-07T05:31:05.795Z,21.96
2016-06-07T05:32:05.782Z,22.08
2016-06-07T05:33:05.770Z,22.08
2016-06-07T05:34:05.616Z,22.12
2016-06-07T05:35:05.776Z,22.18
2016-06-07T05:36:05.746Z,22.03
2016-06-07T05:37:06.030Z,22.05
2016-06-07T05:38:05.721Z,22.17
2016-06-07T05:39:05.723Z,22.12
2016-06-07T05:40:05.726Z,22.1
2016-06-07T05:41:05.712Z,22.11
2016-06-07T05:42:06.184Z,21.97
2016-06-07T05:43:05.672Z,22.12
2016-06-07T05:44:05.518Z,22.08
2016-06-07T05:45:05.661Z,22.18
2016-06-07T05:46:05.664Z,22.15
2016-06-07T05:47:05.650Z,22.21
2016-06-07T05:48:05.685Z,22.27
2016-06-07T05:49:05.625Z,22.36
2016-06-07T05:50:05.611Z,22.39
2016-06-07T05:51:05.599Z,22.32
2016-06-07T05:52:05.617Z,22.42
2016-06-07T05:53:05.589Z,22.47
2016-06-07T05:54:05.592Z,22.47
2016-06-07T05:55:05.563Z,22.52
2016-06-07T05:56:05.566Z,22.43
2016-06-07T05:57:05.553Z,22.54
2016-06-07T05:58:05.556Z,22.36
2016-06-07T05:59:05.543Z,22.33
2016-06-07T06:00:05.527Z,21.92
2016-06-07T06:01:05.513Z,21.86
2016-06-07T06:02:05.502Z,21.76
2016-06-07T06:03:05.504Z,21.64
2016-06-07T06:04:05.476Z,21.58
2016-06-07T06:05:05.478Z,21.56
2016-06-07T06:06:05.481Z,21.49
2016-06-07T06:07:05.452Z,21.33
2016-06-07T06:08:05.471Z,21.36
2016-06-07T06:09:05.285Z,21.25
2016-06-07T06:10:05.429Z,21.34
2016-06-07T06:11:05.276Z,21.4
2016-06-07T06:12:05.418Z,21.41
2016-06-07T06:13:05.390Z,21.33
2016-06-07T06:14:05.393Z,21.44
2016-06-07T06:15:05.380Z,21.43
2016-06-07T06:16:05.383Z,21.28
2016-06-07T06:17:05.353Z,21.17
2016-06-07T06:18:05.357Z,21.19
2016-06-07T06:19:05.344Z,21.22
2016-06-07T06:20:05.347Z,21.24
2016-06-07T06:21:05.333Z,21.34
2016-06-07T06:22:05.320Z,21.41
2016-06-07T06:23:05.152Z,21.58
2016-06-07T06:24:05.295Z,21.79
2016-06-07T06:25:05.282Z,21.83
2016-06-07T06:26:05.128Z,21.84
2016-06-07T06:27:05.272Z,22.06
2016-06-07T06:28:05.258Z,22.06
2016-06-07T06:29:05.277Z,22.08
2016-06-07T06:30:05.248Z,22.22
2016-06-07T06:31:05.252Z,22.24
2016-06-07T06:32:05.222Z,22.27
2016-06-07T06:33:05.224Z,22.2
2016-06-07T06:34:05.228Z,22.18
2016-06-07T06:35:05.215Z,22.17
2016-06-07T06:36:05.186Z,22.17
2016-06-07T06:37:05.204Z,22.33
2016-06-07T06:38:05.192Z,22.35
2016-06-07T06:39:05.195Z,22.47
2016-06-07T06:40:05.165Z,22.35
2016-06-07T06:41:05.153Z,22.12
2016-06-07T06:42:05.155Z,22.21
2016-06-07T06:43:05.143Z,22.37
2016-06-07T06:44:05.130Z,22.37
2016-06-07T06:45:05.164Z,22.45
2016-06-07T06:46:05.119Z,22.51
2016-06-07T06:47:05.107Z,22.65
2016-06-07T06:48:05.109Z,22.66
2016-06-07T06:49:05.127Z,22.65
2016-06-07T06:50:05.084Z,22.65
2016-06-07T06:51:05.133Z,22.77
2016-06-07T06:52:05.073Z,22.85
2016-06-07T06:53:05.060Z,22.84
2016-06-07T06:54:05.048Z,22.92
2016-06-07T06:55:05.066Z,22.66
2016-06-07T06:56:05.036Z,22.66
2016-06-07T06:57:05.072Z,22.85
2016-06-07T06:58:05.011Z,23.03
2016-06-07T06:59:05.014Z,22.97
2016-06-07T07:00:05.001Z,23.02
2016-06-07T07:01:05.003Z,22.94
2016-06-07T07:02:04.991Z,22.61
2016-06-07T07:03:04.978Z,22.69
2016-06-07T07:04:04.965Z,22.88
2016-06-07T07:05:04.968Z,22.97
2016-06-07T07:06:04.939Z,23.24
2016-06-07T07:07:05.551Z,23.29
2016-06-07T07:08:04.804Z,23.28
2016-06-07T07:09:04.931Z,23.51
2016-06-07T07:10:04.949Z,23.55
2016-06-07T07:11:04.921Z,23.59
2016-06-07T07:12:04.923Z,23.7
2016-06-07T07:13:04.895Z,23.77
2016-06-07T07:14:04.914Z,23.62
2016-06-07T07:15:04.870Z,23.63
2016-06-07T07:16:04.887Z,23.66
2016-06-07T07:17:04.875Z,23.6
2016-06-07T07:18:04.862Z,23.59
2016-06-07T07:19:04.864Z,23.59
2016-06-07T07:20:04.851Z,23.78
2016-06-07T07:21:04.822Z,23.62
2016-06-07T07:22:04.842Z,23.63
2016-06-07T07:23:04.828Z,23.65
2016-06-07T07:24:04.815Z,23.8
2016-06-07T07:25:04.803Z,23.84
2016-06-07T07:26:04.836Z,23.87
2016-06-07T07:27:04.808Z,23.96
2016-06-07T07:28:04.826Z,24.06
2016-06-07T07:29:04.766Z,24.18
2016-06-07T07:30:04.769Z,24.34
2016-06-07T07:31:04.772Z,24.39
2016-06-07T07:32:04.743Z,24.47
2016-06-07T07:33:04.746Z,24.54
2016-06-07T07:34:04.749Z,24.61
2016-06-07T07:35:04.721Z,24.57
2016-06-07T07:36:04.723Z,24.7
2016-06-07T07:37:05.304Z,24.82
2016-06-07T07:38:04.729Z,24.84
2016-06-07T07:39:04.715Z,24.92
2016-06-07T07:40:04.701Z,24.93
2016-06-07T07:41:04.532Z,25
2016-06-07T07:42:04.536Z,25.1
2016-06-07T07:43:04.679Z,25
2016-06-07T07:44:04.526Z,24.99
2016-06-07T07:45:04.668Z,24.89
2016-06-07T07:46:04.656Z,24.92
2016-06-07T07:47:04.673Z,24.97
2016-06-07T07:48:04.646Z,25
2016-06-07T07:49:04.648Z,24.85
2016-06-07T07:50:04.635Z,25.02
2016-06-07T07:51:04.622Z,25.29
2016-06-07T07:52:04.484Z,25.37
2016-06-07T07:53:04.769Z,25.52
2016-06-07T07:54:04.614Z,25.63
2016-06-07T07:55:04.602Z,25.71
2016-06-07T07:56:04.589Z,25.84
2016-06-07T07:57:04.638Z,25.92
2016-06-07T07:58:04.594Z,26.11
2016-06-07T07:59:04.644Z,26.24
2016-06-07T08:00:04.569Z,26.41
2016-06-07T08:01:04.618Z,26.24
2016-06-07T08:02:04.433Z,26.17
2016-06-07T08:03:04.608Z,26.08
2016-06-07T08:04:04.548Z,26.26
2016-06-07T08:05:04.551Z,26.26
2016-06-07T08:06:04.537Z,26.39
2016-06-07T08:07:04.962Z,26.42
2016-06-07T08:08:04.544Z,26.42
2016-06-07T08:09:04.530Z,26.38
2016-06-07T08:10:04.518Z,26.37
2016-06-07T08:11:04.504Z,26.44
2016-06-07T08:12:04.523Z,26.6
2016-06-07T08:13:04.494Z,26.79
2016-06-07T08:14:04.481Z,26.84
2016-06-07T08:15:04.484Z,27.07
2016-06-07T08:16:04.486Z,27.06
2016-06-07T08:17:04.473Z,27.41
2016-06-07T08:18:04.492Z,27.26
2016-06-07T08:19:04.464Z,27.38
2016-06-07T08:20:04.467Z,27.52
2016-06-07T08:21:04.453Z,27.69
2016-06-07T08:22:04.596Z,27.69
2016-06-07T08:23:04.349Z,27.76
2016-06-07T08:24:04.462Z,27.79
2016-06-07T08:25:04.448Z,27.78
2016-06-07T08:26:04.435Z,27.86
2016-06-07T08:27:04.422Z,27.6
2016-06-07T08:28:04.425Z,27.78
2016-06-07T08:29:04.255Z,28.03
2016-06-07T08:30:04.462Z,28.34
2016-06-07T08:31:04.246Z,28.45
2016-06-07T08:32:04.405Z,28.56
2016-06-07T08:33:04.391Z,28.8
2016-06-07T08:34:04.394Z,28.38
2016-06-07T08:35:04.381Z,27.9
2016-06-07T08:36:04.384Z,27.57
2016-06-07T08:37:04.388Z,27.64
2016-06-07T08:38:04.499Z,27.49
2016-06-07T08:39:04.360Z,27.75
2016-06-07T08:40:04.379Z,28.24
2016-06-07T08:41:04.365Z,28.49
2016-06-07T08:42:04.354Z,28.71
2016-06-07T08:43:04.356Z,28.77
2016-06-07T08:44:04.343Z,28.83
2016-06-07T08:45:04.345Z,27.81
2016-06-07T08:46:04.192Z,27.6
2016-06-07T08:47:04.273Z,28.01
2016-06-07T08:48:04.370Z,28.43
2016-06-07T08:49:04.325Z,28.84
2016-06-07T08:50:04.312Z,29.12
2016-06-07T08:51:04.330Z,29.44
2016-06-07T08:52:04.318Z,29.79
2016-06-07T08:53:05.055Z,30.11
2016-06-07T08:54:04.308Z,30.11
2016-06-07T08:55:04.310Z,30.08
2016-06-07T08:56:04.297Z,30.25
2016-06-07T08:57:04.284Z,30.31
2016-06-07T08:58:04.287Z,30.17
2016-06-07T08:59:04.289Z,30.2
2016-06-07T09:00:04.120Z,30.02
2016-06-07T09:01:04.264Z,29.92
2016-06-07T09:02:04.282Z,29.47
2016-06-07T09:03:04.128Z,29.18
2016-06-07T09:04:04.272Z,29.24
2016-06-07T09:05:04.321Z,29.02
2016-06-07T09:06:04.277Z,28.64
2016-06-07T09:07:04.264Z,28.93
2016-06-07T09:08:04.110Z,28.97
2016-06-07T09:09:04.301Z,29.4
2016-06-07T09:10:04.257Z,29.36
2016-06-07T09:11:04.149Z,29.76
2016-06-07T09:12:04.247Z,30.08
2016-06-07T09:13:04.265Z,30.17
2016-06-07T09:14:04.237Z,30.48
2016-06-07T09:15:04.223Z,30.4
2016-06-07T09:16:04.242Z,29.86
2016-06-07T09:17:04.245Z,29.84
2016-06-07T09:18:04.247Z,30.33
2016-06-07T09:19:04.281Z,30.43
2016-06-07T09:20:04.221Z,30.63
2016-06-07T09:21:04.239Z,30.76
2016-06-07T09:22:04.227Z,30.68
2016-06-07T09:23:04.089Z,30.89
2016-06-07T09:24:04.200Z,31.33
2016-06-07T09:25:04.219Z,31.62
2016-06-07T09:26:04.222Z,31.9
2016-06-07T09:27:04.209Z,31.4
2016-06-07T09:28:04.056Z,31.29
2016-06-07T09:29:04.042Z,31.47
2016-06-07T09:30:04.200Z,31.48
2016-06-07T09:31:04.203Z,31.45
2016-06-07T09:32:04.207Z,31.3
2016-06-07T09:33:04.225Z,31.34
2016-06-07T09:34:04.228Z,31.08
2016-06-07T09:35:04.215Z,31.07
2016-06-07T09:36:04.046Z,30.43
2016-06-07T09:37:04.204Z,30.86
2016-06-07T09:38:04.066Z,30.71
2016-06-07T09:39:04.069Z,30.89
2016-06-07T09:40:04.212Z,31.33
2016-06-07T09:41:04.215Z,31.76
2016-06-07T09:42:04.218Z,32.26
2016-06-07T09:43:04.080Z,32.47
2016-06-07T09:44:04.207Z,32.53
2016-06-07T09:45:04.226Z,32.63
2016-06-07T09:46:04.087Z,32.84
2016-06-07T09:47:04.216Z,32.97
2016-06-07T09:48:04.218Z,33.1
2016-06-07T09:49:04.065Z,33.32
2016-06-07T09:50:04.224Z,33.36
2016-06-07T09:51:04.226Z,33.36
2016-06-07T09:52:04.214Z,32.48
2016-06-07T09:53:04.279Z,32.48
2016-06-07T09:54:04.515Z,32.87
2016-06-07T09:55:04.253Z,33.05
2016-06-07T09:56:04.084Z,33.12
2016-06-07T09:57:04.242Z,33.29
2016-06-07T09:58:04.230Z,33.6
2016-06-07T09:59:04.233Z,33.91
2016-06-07T10:00:04.235Z,32.14
2016-06-07T10:01:04.253Z,32.56
2016-06-07T10:02:04.100Z,33.29
2016-06-07T10:03:04.243Z,33.39
2016-06-07T10:04:04.261Z,31.08
2016-06-07T10:05:04.311Z,30.64
2016-06-07T10:06:04.252Z,31.25
2016-06-07T10:07:04.254Z,31.78
2016-06-07T10:08:04.257Z,32.01
2016-06-07T10:09:04.306Z,32.58
2016-06-07T10:10:04.263Z,33.17
2016-06-07T10:11:04.124Z,33.55
2016-06-07T10:12:04.267Z,33.89
2016-06-07T10:13:04.285Z,34.15
2016-06-07T10:14:04.273Z,34.29
2016-06-07T10:15:04.276Z,34.48
2016-06-07T10:16:04.279Z,34.55
2016-06-07T10:17:04.296Z,34.34
2016-06-07T10:18:04.112Z,33.52
2016-06-07T10:19:04.318Z,32.47
2016-06-07T10:20:04.353Z,31.47
2016-06-07T10:21:04.277Z,30.88
2016-06-07T10:22:04.326Z,31.47
2016-06-07T10:23:04.314Z,32.13
2016-06-07T10:24:04.301Z,32.57
2016-06-07T10:25:04.303Z,32.87
2016-06-07T10:26:04.307Z,32.98
2016-06-07T10:27:04.293Z,33.09
2016-06-07T10:28:04.358Z,32.87
2016-06-07T10:29:04.298Z,32.57
2016-06-07T10:30:10.785Z,31.74
2016-06-07T10:31:04.287Z,31.78
2016-06-07T10:32:04.291Z,31.82
2016-06-07T10:33:04.309Z,31.6
2016-06-07T10:34:04.312Z,31.48
2016-06-07T10:35:04.315Z,31.3
2016-06-07T10:36:04.301Z,31.2
2016-06-07T10:37:04.320Z,31.07
2016-06-07T10:38:04.213Z,30.92
2016-06-07T10:39:04.310Z,30.96
2016-06-07T10:40:04.297Z,31.03
2016-06-07T10:41:04.315Z,30.83
2016-06-07T10:42:04.303Z,30.7
2016-06-07T10:43:04.305Z,30.66
2016-06-07T10:44:04.292Z,30.61
2016-06-07T10:45:04.295Z,30.51
2016-06-07T10:46:04.297Z,30.52
2016-06-07T10:47:04.347Z,30.38
2016-06-07T10:48:04.286Z,30.39
2016-06-07T10:49:04.290Z,30.25
2016-06-07T10:50:04.292Z,30.23
2016-06-07T10:51:04.295Z,30.14
2016-06-07T10:52:04.297Z,30.23
2016-06-07T10:53:04.691Z,30.16
2016-06-07T10:54:04.287Z,29.96
2016-06-07T10:55:04.287Z,29.62
2016-06-07T10:56:04.290Z,29.47
2016-06-07T10:57:04.369Z,29.42
2016-06-07T10:58:04.325Z,29.57
2016-06-07T10:59:04.358Z,29.47
2016-06-07T11:00:04.181Z,29.28
2016-06-07T11:01:04.375Z,29.17
2016-06-07T11:02:04.352Z,29.07
2016-06-07T11:03:04.345Z,29.24
2016-06-07T11:04:04.353Z,29.36
2016-06-07T11:05:04.374Z,29.49
2016-06-07T11:06:04.347Z,29.54
2016-06-07T11:07:04.336Z,29.59
2016-06-07T11:08:05.450Z,29.51
2016-06-07T11:09:04.362Z,29.27
2016-06-07T11:10:04.333Z,29.21
2016-06-07T11:11:04.336Z,29.27
2016-06-07T11:12:04.340Z,29.18
2016-06-07T11:13:04.329Z,29.3
2016-06-07T11:14:04.378Z,28.98
2016-06-07T11:15:04.350Z,29.05
2016-06-07T11:16:04.338Z,29.2
2016-06-07T11:17:04.325Z,29.25
2016-06-07T11:18:04.375Z,29.28
2016-06-07T11:19:04.347Z,29.39
2016-06-07T11:20:04.303Z,29.49
2016-06-07T11:21:04.322Z,29.51
2016-06-07T11:22:04.324Z,29.37
2016-06-07T11:23:04.170Z,29.27
2016-06-07T11:24:04.391Z,29.25
2016-06-07T11:25:04.300Z,29.21
2016-06-07T11:26:04.303Z,29.05
2016-06-07T11:27:04.290Z,29.14
2016-06-07T11:28:04.325Z,29.18
2016-06-07T11:29:04.139Z,29.21
2016-06-07T11:30:04.299Z,29.25
2016-06-07T11:31:04.113Z,29.37
2016-06-07T11:32:04.289Z,29.36
2016-06-07T11:33:04.275Z,29.46
2016-06-07T11:34:04.278Z,29.49
2016-06-07T11:35:04.265Z,29.47
2016-06-07T11:36:04.252Z,29.46
2016-06-07T11:37:04.270Z,29.47
2016-06-07T11:38:03.960Z,29.46
2016-06-07T11:39:04.510Z,29.59
2016-06-07T11:40:04.247Z,29.51
2016-06-07T11:41:04.312Z,29.7
2016-06-07T11:42:04.253Z,29.76
2016-06-07T11:43:04.287Z,29.74
2016-06-07T11:44:04.259Z,29.76
2016-06-07T11:45:04.229Z,29.98
2016-06-07T11:46:04.217Z,29.99
2016-06-07T11:47:04.234Z,30.17
2016-06-07T11:48:04.222Z,30.36
2016-06-07T11:49:04.240Z,30.28
2016-06-07T11:50:04.212Z,30.54
2016-06-07T11:51:04.278Z,30.66
2016-06-07T11:52:04.217Z,30.98
2016-06-07T11:53:05.048Z,31.3
2016-06-07T11:54:05.081Z,31.78
2016-06-07T11:55:04.209Z,31.82
2016-06-07T11:56:04.196Z,32.19
2016-06-07T11:57:04.231Z,32.6
2016-06-07T11:58:04.186Z,32.68
2016-06-07T11:59:04.189Z,32.7
2016-06-07T12:00:04.192Z,32.57
2016-06-07T12:01:04.179Z,32.51
2016-06-07T12:02:04.182Z,32.35
2016-06-07T12:03:04.199Z,32.7
2016-06-07T12:04:04.171Z,32.94
2016-06-07T12:05:04.174Z,32.87
2016-06-07T12:06:04.161Z,32.53
2016-06-07T12:07:04.164Z,32.61
2016-06-07T12:08:04.182Z,32.61
2016-06-07T12:09:04.185Z,32.91
2016-06-07T12:10:04.156Z,32.88
2016-06-07T12:11:04.190Z,33
2016-06-07T12:12:04.192Z,32.88
2016-06-07T12:13:04.164Z,32.84
2016-06-07T12:14:04.167Z,33.13
2016-06-07T12:15:04.154Z,33.37
2016-06-07T12:16:04.157Z,33.59
2016-06-07T12:17:04.159Z,33.74
2016-06-07T12:18:04.162Z,33.39
2016-06-07T12:19:04.149Z,33.39
2016-06-07T12:20:04.198Z,33.35
2016-06-07T12:21:04.154Z,32.88
2016-06-07T12:22:04.142Z,32.75
2016-06-07T12:23:04.239Z,32.57
2016-06-07T12:24:04.116Z,32.56
2016-06-07T12:25:04.150Z,32.64
2016-06-07T12:26:04.137Z,32.88
2016-06-07T12:27:04.155Z,32.98
2016-06-07T12:28:04.158Z,33.1
2016-06-07T12:29:04.160Z,32.9
2016-06-07T12:30:04.163Z,32.64
2016-06-07T12:31:04.150Z,33.14
2016-06-07T12:32:04.138Z,33.32
2016-06-07T12:33:04.140Z,33.37
2016-06-07T12:34:04.143Z,33.64
2016-06-07T12:35:04.129Z,33.92
2016-06-07T12:36:04.148Z,33.97
2016-06-07T12:37:04.135Z,34.16
2016-06-07T12:38:04.121Z,34.33
2016-06-07T12:39:04.281Z,33.66
2016-06-07T12:40:04.127Z,33.29
2016-06-07T12:41:04.130Z,33.09
2016-06-07T12:42:04.149Z,32.97
2016-06-07T12:43:04.135Z,33.06
2016-06-07T12:44:04.138Z,32.75
2016-06-07T12:45:04.172Z,32.57
2016-06-07T12:46:04.128Z,32.48
2016-06-07T12:47:04.131Z,32.48
2016-06-07T12:48:04.134Z,32.72
2016-06-07T12:49:04.121Z,33.05
2016-06-07T12:50:04.123Z,33.44
2016-06-07T12:51:03.970Z,33.79
2016-06-07T12:52:03.973Z,34
2016-06-07T12:53:04.115Z,34.15
2016-06-07T12:54:04.118Z,34.23
2016-06-07T12:55:04.089Z,34.13